sensor_id;sensor_type;location;lat;lon;timestamp;pressure;altitude;pressure_sealevel;temperature;humidity
16821;BME280;8527;49.740;6.604;2022-12-18T00:03:42;100920.66;;;-8.54;93.18
16821;BME280;8527;49.740;6.604;2022-12-18T00:08:41;100913.06;;;-8.65;94.04
16821;BME280;8527;49.740;6.604;2022-12-18T00:13:39;100930.16;;;-8.59;94.03
16821;BME280;8527;49.740;6.604;2022-12-18T00:18:41;100926.69;;;-8.56;93.37
16821;BME280;8527;49.740;6.604;2022-12-18T00:23:44;100918.16;;;-8.62;92.60
16821;BME280;8527;49.740;6.604;2022-12-18T00:28:43;100918.97;;;-8.58;93.01
16821;BME280;8527;49.740;6.604;2022-12-18T00:33:44;100919.16;;;-8.73;92.72
16821;BME280;8527;49.740;6.604;2022-12-18T00:38:46;100920.78;;;-8.66;92.58
16821;BME280;8527;49.740;6.604;2022-12-18T00:43:47;100920.00;;;-8.73;92.56
16821;BME280;8527;49.740;6.604;2022-12-18T00:48:48;100915.75;;;-8.77;92.72
16821;BME280;8527;49.740;6.604;2022-12-18T00:53:47;100904.66;;;-8.81;92.41
16821;BME280;8527;49.740;6.604;2022-12-18T00:58:45;100916.72;;;-8.84;91.76
16821;BME280;8527;49.740;6.604;2022-12-18T01:03:49;100924.53;;;-8.98;91.55
16821;BME280;8527;49.740;6.604;2022-12-18T01:08:47;100914.22;;;-8.94;91.72
16821;BME280;8527;49.740;6.604;2022-12-18T01:13:46;100923.78;;;-9.11;91.72
16821;BME280;8527;49.740;6.604;2022-12-18T01:18:44;100925.47;;;-9.04;91.67
16821;BME280;8527;49.740;6.604;2022-12-18T01:23:51;100900.56;;;-9.00;92.17
16821;BME280;8527;49.740;6.604;2022-12-18T01:28:49;100904.06;;;-9.08;92.22
16821;BME280;8527;49.740;6.604;2022-12-18T01:33:48;100928.94;;;-9.11;93.26
16821;BME280;8527;49.740;6.604;2022-12-18T01:38:51;100930.66;;;-9.12;93.14
16821;BME280;8527;49.740;6.604;2022-12-18T01:43:52;100919.59;;;-9.20;92.68
16821;BME280;8527;49.740;6.604;2022-12-18T01:48:53;100904.25;;;-9.26;92.35
16821;BME280;8527;49.740;6.604;2022-12-18T01:53:59;100901.66;;;-9.28;92.63
16821;BME280;8527;49.740;6.604;2022-12-18T01:59:02;100898.34;;;-9.39;91.96
16821;BME280;8527;49.740;6.604;2022-12-18T02:04:20;100899.28;;;-9.47;92.47
16821;BME280;8527;49.740;6.604;2022-12-18T02:09:27;100917.22;;;-9.45;93.61
16821;BME280;8527;49.740;6.604;2022-12-18T02:14:33;100908.66;;;-9.41;93.53
16821;BME280;8527;49.740;6.604;2022-12-18T02:19:48;100909.53;;;-9.48;93.71
16821;BME280;8527;49.740;6.604;2022-12-18T02:25:01;100897.56;;;-9.48;93.06
16821;BME280;8527;49.740;6.604;2022-12-18T02:30:08;100891.59;;;-9.53;93.14
16821;BME280;8527;49.740;6.604;2022-12-18T02:35:12;100883.06;;;-9.55;92.43
16821;BME280;8527;49.740;6.604;2022-12-18T02:40:14;100884.03;;;-9.67;93.13
16821;BME280;8527;49.740;6.604;2022-12-18T02:45:17;100892.56;;;-9.68;93.35
16821;BME280;8527;49.740;6.604;2022-12-18T02:50:19;100887.53;;;-9.82;92.86
16821;BME280;8527;49.740;6.604;2022-12-18T02:55:28;100885.00;;;-9.85;92.73
16821;BME280;8527;49.740;6.604;2022-12-18T03:00:40;100886.66;;;-9.78;92.88
16821;BME280;8527;49.740;6.604;2022-12-18T03:05:44;100897.84;;;-9.85;93.12
16821;BME280;8527;49.740;6.604;2022-12-18T03:10:51;100902.94;;;-9.83;93.07
16821;BME280;8527;49.740;6.604;2022-12-18T03:15:56;100895.19;;;-9.76;94.24
16821;BME280;8527;49.740;6.604;2022-12-18T03:21:00;100898.72;;;-9.94;92.88
16821;BME280;8527;49.740;6.604;2022-12-18T03:26:05;100894.47;;;-9.96;93.66
16821;BME280;8527;49.740;6.604;2022-12-18T03:31:09;100898.75;;;-9.97;93.58
16821;BME280;8527;49.740;6.604;2022-12-18T03:36:10;100879.94;;;-9.99;94.37
16821;BME280;8527;49.740;6.604;2022-12-18T03:41:19;100880.78;;;-9.97;93.81
16821;BME280;8527;49.740;6.604;2022-12-18T03:46:26;100889.38;;;-10.03;93.64
16821;BME280;8527;49.740;6.604;2022-12-18T03:51:30;100896.28;;;-10.15;92.84
16821;BME280;8527;49.740;6.604;2022-12-18T03:56:35;100886.81;;;-10.04;93.61
16821;BME280;8527;49.740;6.604;2022-12-18T04:01:40;100870.59;;;-10.08;93.63
16821;BME280;8527;49.740;6.604;2022-12-18T04:06:40;100875.75;;;-10.12;93.78
16821;BME280;8527;49.740;6.604;2022-12-18T04:11:40;100880.00;;;-10.10;94.06
16821;BME280;8527;49.740;6.604;2022-12-18T04:16:41;100862.06;;;-10.10;95.81
16821;BME280;8527;49.740;6.604;2022-12-18T04:21:40;100853.44;;;-10.03;97.15
16821;BME280;8527;49.740;6.604;2022-12-18T04:26:38;100856.00;;;-10.03;96.46
16821;BME280;8527;49.740;6.604;2022-12-18T04:31:36;100855.22;;;-10.11;95.38
16821;BME280;8527;49.740;6.604;2022-12-18T04:36:38;100862.97;;;-10.20;94.65
16821;BME280;8527;49.740;6.604;2022-12-18T04:41:36;100876.66;;;-10.24;94.47
16821;BME280;8527;49.740;6.604;2022-12-18T04:46:34;100863.84;;;-10.27;94.20
16821;BME280;8527;49.740;6.604;2022-12-18T04:51:38;100869.84;;;-10.32;94.38
16821;BME280;8527;49.740;6.604;2022-12-18T04:56:37;100873.25;;;-10.29;94.48
16821;BME280;8527;49.740;6.604;2022-12-18T05:01:36;100875.84;;;-10.33;94.23
16821;BME280;8527;49.740;6.604;2022-12-18T05:06:34;100876.69;;;-10.31;94.25
16821;BME280;8527;49.740;6.604;2022-12-18T05:11:35;100886.13;;;-10.37;93.62
16821;BME280;8527;49.740;6.604;2022-12-18T05:16:33;100895.56;;;-10.41;93.00
16821;BME280;8527;49.740;6.604;2022-12-18T05:21:32;100885.28;;;-10.36;93.70
16821;BME280;8527;49.740;6.604;2022-12-18T05:26:30;100890.47;;;-10.44;93.63
16821;BME280;8527;49.740;6.604;2022-12-18T05:31:31;100889.63;;;-10.48;93.74
16821;BME280;8527;49.740;6.604;2022-12-18T05:36:30;100901.59;;;-10.48;93.60
16821;BME280;8527;49.740;6.604;2022-12-18T05:41:29;100913.56;;;-10.53;93.82
16821;BME280;8527;49.740;6.604;2022-12-18T05:46:27;100918.69;;;-10.50;93.94
16821;BME280;8527;49.740;6.604;2022-12-18T05:51:28;100922.13;;;-10.54;94.02
16821;BME280;8527;49.740;6.604;2022-12-18T05:56:27;100908.47;;;-10.55;93.62
16821;BME280;8527;49.740;6.604;2022-12-18T06:01:26;100912.78;;;-10.72;93.66
16821;BME280;8527;49.740;6.604;2022-12-18T06:06:28;100911.91;;;-10.65;93.91
16821;BME280;8527;49.740;6.604;2022-12-18T06:11:26;100911.03;;;-10.61;93.97
16821;BME280;8527;49.740;6.604;2022-12-18T06:16:25;100920.44;;;-10.65;93.97
16821;BME280;8527;49.740;6.604;2022-12-18T06:21:24;100917.84;;;-10.55;95.24
16821;BME280;8527;49.740;6.604;2022-12-18T06:26:25;100918.69;;;-10.49;95.28
16821;BME280;8527;49.740;6.604;2022-12-18T06:31:23;100925.53;;;-10.48;95.84
16821;BME280;8527;49.740;6.604;2022-12-18T06:36:22;100938.38;;;-10.54;95.09
16821;BME280;8527;49.740;6.604;2022-12-18T06:41:21;100929.81;;;-10.53;95.43
16821;BME280;8527;49.740;6.604;2022-12-18T06:46:22;100934.94;;;-10.54;95.79
16821;BME280;8527;49.740;6.604;2022-12-18T06:51:22;100936.66;;;-10.53;96.27
16821;BME280;8527;49.740;6.604;2022-12-18T06:56:20;100955.47;;;-10.59;96.67
16821;BME280;8527;49.740;6.604;2022-12-18T07:01:21;100948.66;;;-10.68;95.25
16821;BME280;8527;49.740;6.604;2022-12-18T07:06:21;100958.03;;;-10.64;95.32
16821;BME280;8527;49.740;6.604;2022-12-18T07:11:21;100957.22;;;-10.72;94.49
16821;BME280;8527;49.740;6.604;2022-12-18T07:16:22;100966.63;;;-10.72;94.54
16821;BME280;8527;49.740;6.604;2022-12-18T07:21:24;100976.00;;;-10.70;94.15
16821;BME280;8527;49.740;6.604;2022-12-18T07:26:25;100984.59;;;-10.79;93.62
16821;BME280;8527;49.740;6.604;2022-12-18T07:31:29;100989.72;;;-10.74;93.95
16821;BME280;8527;49.740;6.604;2022-12-18T07:36:35;100982.00;;;-10.68;94.59
16821;BME280;8527;49.740;6.604;2022-12-18T07:41:36;100984.56;;;-10.66;94.50
16821;BME280;8527;49.740;6.604;2022-12-18T07:46:40;100963.19;;;-10.65;94.25
16821;BME280;8527;49.740;6.604;2022-12-18T07:51:38;100949.47;;;-10.52;94.71
16821;BME280;8527;49.740;6.604;2022-12-18T07:56:37;100942.56;;;-10.40;95.32
16821;BME280;8527;49.740;6.604;2022-12-18T08:01:35;100946.81;;;-10.30;95.17
16821;BME280;8527;49.740;6.604;2022-12-18T08:06:36;100932.25;;;-10.23;94.75
16821;BME280;8527;49.740;6.604;2022-12-18T08:11:35;100931.31;;;-10.13;95.30
16821;BME280;8527;49.740;6.604;2022-12-18T08:16:33;100934.78;;;-10.11;95.09
16821;BME280;8527;49.740;6.604;2022-12-18T08:21:33;100941.59;;;-10.07;94.87
16821;BME280;8527;49.740;6.604;2022-12-18T08:26:34;100944.09;;;-9.97;95.20
16821;BME280;8527;49.740;6.604;2022-12-18T08:31:36;100944.97;;;-10.06;95.38
16821;BME280;8527;49.740;6.604;2022-12-18T08:36:35;100940.72;;;-10.04;96.27
16821;BME280;8527;49.740;6.604;2022-12-18T08:41:36;100944.97;;;-10.00;96.35
16821;BME280;8527;49.740;6.604;2022-12-18T08:46:37;100945.75;;;-9.87;96.41
16821;BME280;8527;49.740;6.604;2022-12-18T08:51:36;100940.59;;;-9.87;96.56
16821;BME280;8527;49.740;6.604;2022-12-18T08:56:37;100956.78;;;-9.69;96.23
16821;BME280;8527;49.740;6.604;2022-12-18T09:01:36;100965.19;;;-9.45;96.41
16821;BME280;8527;49.740;6.604;2022-12-18T09:06:34;100966.69;;;-9.16;96.59
16821;BME280;8527;49.740;6.604;2022-12-18T09:11:33;100970.72;;;-8.86;96.43
16821;BME280;8527;49.740;6.604;2022-12-18T09:16:34;100985.00;;;-8.57;95.59
16821;BME280;8527;49.740;6.604;2022-12-18T09:21:34;100979.47;;;-8.23;95.66
16821;BME280;8527;49.740;6.604;2022-12-18T09:26:36;100972.72;;;-8.35;95.16
16821;BME280;8527;49.740;6.604;2022-12-18T09:31:38;100972.50;;;-8.14;95.55
16821;BME280;8527;49.740;6.604;2022-12-18T09:36:37;100970.66;;;-8.05;96.55
16821;BME280;8527;49.740;6.604;2022-12-18T09:41:43;100969.03;;;-8.10;96.37
16821;BME280;8527;49.740;6.604;2022-12-18T09:46:48;100975.66;;;-7.94;97.02
16821;BME280;8527;49.740;6.604;2022-12-18T09:51:52;100968.56;;;-7.74;97.85
16821;BME280;8527;49.740;6.604;2022-12-18T09:56:54;100952.78;;;-7.51;97.77
16821;BME280;8527;49.740;6.604;2022-12-18T10:01:56;100957.19;;;-7.61;97.01
16821;BME280;8527;49.740;6.604;2022-12-18T10:06:59;100950.28;;;-7.57;96.93
16821;BME280;8527;49.740;6.604;2022-12-18T10:12:07;100950.03;;;-7.39;96.98
16821;BME280;8527;49.740;6.604;2022-12-18T10:17:11;100933.41;;;-7.22;98.02
16821;BME280;8527;49.740;6.604;2022-12-18T10:22:21;100941.03;;;-7.16;97.11
16821;BME280;8527;49.740;6.604;2022-12-18T10:27:25;100928.44;;;-6.81;97.55
16821;BME280;8527;49.740;6.604;2022-12-18T10:32:29;100906.84;;;-6.77;94.67
16821;BME280;8527;49.740;6.604;2022-12-18T10:37:29;100890.34;;;-6.68;93.37
16821;BME280;8527;49.740;6.604;2022-12-18T10:42:27;100902.16;;;-6.56;92.71
16821;BME280;8527;49.740;6.604;2022-12-18T10:47:29;100889.63;;;-6.32;94.14
16821;BME280;8527;49.740;6.604;2022-12-18T10:52:27;100882.41;;;-6.16;92.83
16821;BME280;8527;49.740;6.604;2022-12-18T10:57:34;100884.78;;;-6.05;92.31
16821;BME280;8527;49.740;6.604;2022-12-18T11:02:38;100864.72;;;-5.97;91.63
16821;BME280;8527;49.740;6.604;2022-12-18T11:07:51;100869.28;;;-6.05;90.15
16821;BME280;8527;49.740;6.604;2022-12-18T11:12:53;100860.09;;;-5.83;91.27
16821;BME280;8527;49.740;6.604;2022-12-18T11:17:56;100860.94;;;-5.81;89.61
16821;BME280;8527;49.740;6.604;2022-12-18T11:22:57;100850.47;;;-5.76;89.45
16821;BME280;8527;49.740;6.604;2022-12-18T11:27:58;100852.75;;;-5.63;89.07
16821;BME280;8527;49.740;6.604;2022-12-18T11:33:05;100841.78;;;-5.39;89.30
16821;BME280;8527;49.740;6.604;2022-12-18T11:38:10;100848.22;;;-5.19;89.58
16821;BME280;8527;49.740;6.604;2022-12-18T11:43:16;100846.44;;;-5.18;88.66
16821;BME280;8527;49.740;6.604;2022-12-18T11:48:25;100841.56;;;-4.96;88.32
16821;BME280;8527;49.740;6.604;2022-12-18T11:53:26;100831.66;;;-4.80;88.75
16821;BME280;8527;49.740;6.604;2022-12-18T11:58:39;100818.38;;;-4.68;90.55
16821;BME280;8527;49.740;6.604;2022-12-18T12:03:59;100810.88;;;-4.78;90.56
16821;BME280;8527;49.740;6.604;2022-12-18T12:09:07;100794.31;;;-4.71;88.98
16821;BME280;8527;49.740;6.604;2022-12-18T12:14:20;100788.56;;;-4.53;89.34
16821;BME280;8527;49.740;6.604;2022-12-18T12:19:44;100776.19;;;-4.43;88.62
16821;BME280;8527;49.740;6.604;2022-12-18T12:24:52;100778.47;;;-4.62;89.83
16821;BME280;8527;49.740;6.604;2022-12-18T12:30:00;100771.81;;;-4.69;90.32
16821;BME280;8527;49.740;6.604;2022-12-18T12:35:07;100765.41;;;-4.57;90.81
16821;BME280;8527;49.740;6.604;2022-12-18T12:40:12;100761.25;;;-4.63;91.31
16821;BME280;8527;49.740;6.604;2022-12-18T12:45:18;100764.13;;;-4.44;91.35
16821;BME280;8527;49.740;6.604;2022-12-18T12:50:21;100758.78;;;-4.38;91.48
16821;BME280;8527;49.740;6.604;2022-12-18T12:55:22;100761.28;;;-4.07;92.28
16821;BME280;8527;49.740;6.604;2022-12-18T13:00:22;100757.16;;;-4.13;91.72
16821;BME280;8527;49.740;6.604;2022-12-18T13:05:29;100756.91;;;-4.05;90.56
16821;BME280;8527;49.740;6.604;2022-12-18T13:10:34;100750.78;;;-4.03;90.55
16821;BME280;8527;49.740;6.604;2022-12-18T13:15:37;100746.38;;;-4.01;90.44
16821;BME280;8527;49.740;6.604;2022-12-18T13:20:40;100747.66;;;-3.87;91.34
16821;BME280;8527;49.740;6.604;2022-12-18T13:25:39;100742.63;;;-3.92;90.35
16821;BME280;8527;49.740;6.604;2022-12-18T13:30:52;100741.56;;;-3.85;90.51
16821;BME280;8527;49.740;6.604;2022-12-18T13:36:01;100734.63;;;-3.84;90.25
16821;BME280;8527;49.740;6.604;2022-12-18T13:41:00;100731.31;;;-3.89;90.58
16821;BME280;8527;49.740;6.604;2022-12-18T13:46:05;100712.91;;;-3.82;90.92
16821;BME280;8527;49.740;6.604;2022-12-18T13:51:09;100706.50;;;-3.70;90.62
16821;BME280;8527;49.740;6.604;2022-12-18T13:56:08;100703.03;;;-3.70;90.28
16821;BME280;8527;49.740;6.604;2022-12-18T14:01:21;100705.47;;;-3.65;91.26
16821;BME280;8527;49.740;6.604;2022-12-18T14:06:22;100695.97;;;-3.65;90.86
16821;BME280;8527;49.740;6.604;2022-12-18T14:11:24;100704.31;;;-3.82;91.03
16821;BME280;8527;49.740;6.604;2022-12-18T14:16:23;100709.97;;;-3.71;91.36
16821;BME280;8527;49.740;6.604;2022-12-18T14:21:26;100705.19;;;-3.58;91.62
16821;BME280;8527;49.740;6.604;2022-12-18T14:26:29;100700.16;;;-3.62;91.80
16821;BME280;8527;49.740;6.604;2022-12-18T14:31:31;100709.28;;;-3.50;93.81
16821;BME280;8527;49.740;6.604;2022-12-18T14:36:32;100705.63;;;-3.45;94.35
16821;BME280;8527;49.740;6.604;2022-12-18T14:41:30;100706.53;;;-3.46;94.94
16821;BME280;8527;49.740;6.604;2022-12-18T14:46:33;100711.66;;;-3.44;95.34
16821;BME280;8527;49.740;6.604;2022-12-18T14:51:36;100715.84;;;-3.40;95.17
16821;BME280;8527;49.740;6.604;2022-12-18T14:56:35;100709.00;;;-3.43;94.50
16821;BME280;8527;49.740;6.604;2022-12-18T15:01:35;100705.56;;;-3.43;95.16
16821;BME280;8527;49.740;6.604;2022-12-18T15:06:40;100719.50;;;-3.46;95.75
16821;BME280;8527;49.740;6.604;2022-12-18T15:11:46;100724.84;;;-3.50;96.24
16821;BME280;8527;49.740;6.604;2022-12-18T15:16:50;100728.22;;;-3.48;96.52
16821;BME280;8527;49.740;6.604;2022-12-18T15:21:52;100725.78;;;-3.53;96.77
16821;BME280;8527;49.740;6.604;2022-12-18T15:26:50;100733.72;;;-3.58;97.05
16821;BME280;8527;49.740;6.604;2022-12-18T15:31:59;100727.22;;;-3.70;97.47
16821;BME280;8527;49.740;6.604;2022-12-18T15:37:01;100714.38;;;-3.73;97.66
16821;BME280;8527;49.740;6.604;2022-12-18T15:42:00;100705.09;;;-3.80;97.95
16821;BME280;8527;49.740;6.604;2022-12-18T15:47:12;100713.91;;;-3.84;97.74
16821;BME280;8527;49.740;6.604;2022-12-18T15:52:14;100711.75;;;-3.98;98.17
16821;BME280;8527;49.740;6.604;2022-12-18T15:57:21;100709.31;;;-4.03;98.50
16821;BME280;8527;49.740;6.604;2022-12-18T16:02:22;100720.38;;;-3.98;98.41
16821;BME280;8527;49.740;6.604;2022-12-18T16:07:23;100717.09;;;-4.03;98.09
16821;BME280;8527;49.740;6.604;2022-12-18T16:12:22;100711.16;;;-4.06;98.02
16821;BME280;8527;49.740;6.604;2022-12-18T16:17:22;100720.44;;;-3.99;97.76
16821;BME280;8527;49.740;6.604;2022-12-18T16:22:24;100722.00;;;-3.95;98.53
16821;BME280;8527;49.740;6.604;2022-12-18T16:27:26;100721.91;;;-3.92;98.01
16821;BME280;8527;49.740;6.604;2022-12-18T16:32:28;100720.16;;;-3.91;97.88
16821;BME280;8527;49.740;6.604;2022-12-18T16:37:29;100723.81;;;-3.97;97.70
16821;BME280;8527;49.740;6.604;2022-12-18T16:42:30;100723.84;;;-3.99;97.50
16821;BME280;8527;49.740;6.604;2022-12-18T16:47:28;100711.97;;;-4.04;98.35
16821;BME280;8527;49.740;6.604;2022-12-18T16:52:32;100724.06;;;-4.05;98.36
16821;BME280;8527;49.740;6.604;2022-12-18T16:57:30;100716.97;;;-4.00;98.30
16821;BME280;8527;49.740;6.604;2022-12-18T17:02:28;100724.66;;;-3.97;98.39
16821;BME280;8527;49.740;6.604;2022-12-18T17:07:29;100717.09;;;-4.03;98.00
16821;BME280;8527;49.740;6.604;2022-12-18T17:12:28;100713.66;;;-4.03;98.30
16821;BME280;8527;49.740;6.604;2022-12-18T17:17:26;100717.34;;;-4.11;98.72
16821;BME280;8527;49.740;6.604;2022-12-18T17:22:30;100703.22;;;-4.02;98.90
16821;BME280;8527;49.740;6.604;2022-12-18T17:27:28;100696.34;;;-4.03;98.54
16821;BME280;8527;49.740;6.604;2022-12-18T17:32:27;100676.47;;;-4.02;98.88
16821;BME280;8527;49.740;6.604;2022-12-18T17:37:25;100675.47;;;-3.98;98.74
16821;BME280;8527;49.740;6.604;2022-12-18T17:42:26;100666.91;;;-4.00;98.84
16821;BME280;8527;49.740;6.604;2022-12-18T17:47:25;100659.06;;;-3.99;99.26
16821;BME280;8527;49.740;6.604;2022-12-18T17:52:26;100660.81;;;-3.99;99.41
16821;BME280;8527;49.740;6.604;2022-12-18T17:57:28;100638.31;;;-3.99;99.82
16821;BME280;8527;49.740;6.604;2022-12-18T18:02:26;100646.06;;;-3.97;99.83
16821;BME280;8527;49.740;6.604;2022-12-18T18:07:25;100653.03;;;-3.99;99.88
16821;BME280;8527;49.740;6.604;2022-12-18T18:12:23;100643.44;;;-3.96;99.79
16821;BME280;8527;49.740;6.604;2022-12-18T18:17:36;100650.94;;;-3.88;99.48
16821;BME280;8527;49.740;6.604;2022-12-18T18:22:35;100646.53;;;-3.86;99.58
16821;BME280;8527;49.740;6.604;2022-12-18T18:27:33;100647.63;;;-3.93;99.77
16821;BME280;8527;49.740;6.604;2022-12-18T18:32:37;100636.38;;;-3.92;99.89
16821;BME280;8527;49.740;6.604;2022-12-18T18:37:36;100647.47;;;-3.88;99.70
16821;BME280;8527;49.740;6.604;2022-12-18T18:42:34;100652.63;;;-3.87;99.83
16821;BME280;8527;49.740;6.604;2022-12-18T18:47:32;100652.22;;;-3.76;99.85
16821;BME280;8527;49.740;6.604;2022-12-18T18:52:33;100652.19;;;-3.74;99.70
16821;BME280;8527;49.740;6.604;2022-12-18T18:57:32;100650.38;;;-3.72;99.80
16821;BME280;8527;49.740;6.604;2022-12-18T19:02:31;100657.09;;;-3.67;99.67
16821;BME280;8527;49.740;6.604;2022-12-18T19:07:29;100647.53;;;-3.64;100.00
16821;BME280;8527;49.740;6.604;2022-12-18T19:12:30;100650.81;;;-3.59;99.84
16821;BME280;8527;49.740;6.604;2022-12-18T19:17:44;100649.16;;;-3.62;99.60
16821;BME280;8527;49.740;6.604;2022-12-18T19:22:42;100652.03;;;-3.70;99.75
16821;BME280;8527;49.740;6.604;2022-12-18T19:27:43;100632.88;;;-3.65;99.78
16821;BME280;8527;49.740;6.604;2022-12-18T19:32:42;100625.31;;;-3.72;100.00
16821;BME280;8527;49.740;6.604;2022-12-18T19:37:40;100611.38;;;-3.69;99.50
16821;BME280;8527;49.740;6.604;2022-12-18T19:42:39;100619.16;;;-3.69;99.02
16821;BME280;8527;49.740;6.604;2022-12-18T19:47:40;100625.25;;;-3.70;98.70
16821;BME280;8527;49.740;6.604;2022-12-18T19:52:38;100632.13;;;-3.69;98.80
16821;BME280;8527;49.740;6.604;2022-12-18T19:57:37;100625.41;;;-3.75;98.61
16821;BME280;8527;49.740;6.604;2022-12-18T20:02:35;100632.28;;;-3.74;98.88
16821;BME280;8527;49.740;6.604;2022-12-18T20:07:36;100624.50;;;-3.74;99.19
16821;BME280;8527;49.740;6.604;2022-12-18T20:12:35;100635.63;;;-3.70;99.00
16821;BME280;8527;49.740;6.604;2022-12-18T20:17:33;100639.91;;;-3.69;99.11
16821;BME280;8527;49.740;6.604;2022-12-18T20:22:32;100638.06;;;-3.65;98.69
16821;BME280;8527;49.740;6.604;2022-12-18T20:27:33;100635.50;;;-3.67;99.03
16821;BME280;8527;49.740;6.604;2022-12-18T20:32:31;100651.88;;;-3.65;99.14
16821;BME280;8527;49.740;6.604;2022-12-18T20:37:30;100645.09;;;-3.69;99.44
16821;BME280;8527;49.740;6.604;2022-12-18T20:42:28;100647.63;;;-3.68;99.41
16821;BME280;8527;49.740;6.604;2022-12-18T20:47:29;100645.78;;;-3.64;99.63
16821;BME280;8527;49.740;6.604;2022-12-18T20:52:28;100647.41;;;-3.61;99.39
16821;BME280;8527;49.740;6.604;2022-12-18T20:57:26;100642.28;;;-3.63;99.98
16821;BME280;8527;49.740;6.604;2022-12-18T21:02:25;100627.63;;;-3.64;99.88
16821;BME280;8527;49.740;6.604;2022-12-18T21:07:26;100636.81;;;-3.55;99.32
16821;BME280;8527;49.740;6.604;2022-12-18T21:12:25;100627.41;;;-3.58;98.98
16821;BME280;8527;49.740;6.604;2022-12-18T21:17:30;100623.69;;;-3.50;98.60
16821;BME280;8527;49.740;6.604;2022-12-18T21:22:31;100627.81;;;-3.45;98.61
16821;BME280;8527;49.740;6.604;2022-12-18T21:27:31;100626.13;;;-3.46;98.60
16821;BME280;8527;49.740;6.604;2022-12-18T21:32:32;100639.09;;;-3.46;98.42
16821;BME280;8527;49.740;6.604;2022-12-18T21:37:33;100641.56;;;-3.43;98.68
16821;BME280;8527;49.740;6.604;2022-12-18T21:42:32;100636.41;;;-3.44;98.70
16821;BME280;8527;49.740;6.604;2022-12-18T21:47:43;100634.72;;;-3.45;98.51
16821;BME280;8527;49.740;6.604;2022-12-18T21:52:46;100631.22;;;-3.44;98.72
16821;BME280;8527;49.740;6.604;2022-12-18T21:57:48;100639.91;;;-3.45;99.05
16821;BME280;8527;49.740;6.604;2022-12-18T22:02:49;100628.31;;;-3.35;98.88
16821;BME280;8527;49.740;6.604;2022-12-18T22:07:50;100636.66;;;-3.27;98.54
16821;BME280;8527;49.740;6.604;2022-12-18T22:12:49;100628.19;;;-3.32;98.52
16821;BME280;8527;49.740;6.604;2022-12-18T22:17:47;100625.38;;;-3.26;98.72
16821;BME280;8527;49.740;6.604;2022-12-18T22:22:46;100620.19;;;-3.26;99.15
16821;BME280;8527;49.740;6.604;2022-12-18T22:27:51;100616.06;;;-3.31;99.73
16821;BME280;8527;49.740;6.604;2022-12-18T22:33:02;100610.41;;;-3.19;99.82
16821;BME280;8527;49.740;6.604;2022-12-18T22:38:00;100601.66;;;-3.16;100.00
16821;BME280;8527;49.740;6.604;2022-12-18T22:43:01;100600.34;;;-3.04;100.00
16821;BME280;8527;49.740;6.604;2022-12-18T22:48:00;100589.09;;;-3.05;100.00
16821;BME280;8527;49.740;6.604;2022-12-18T22:52:58;100578.13;;;-3.12;100.00
16821;BME280;8527;49.740;6.604;2022-12-18T22:57:57;100578.28;;;-3.16;99.33
16821;BME280;8527;49.740;6.604;2022-12-18T23:02:58;100572.31;;;-3.18;99.70
16821;BME280;8527;49.740;6.604;2022-12-18T23:07:57;100568.72;;;-3.14;100.00
16821;BME280;8527;49.740;6.604;2022-12-18T23:12:55;100564.31;;;-3.12;100.00
16821;BME280;8527;49.740;6.604;2022-12-18T23:17:55;100550.44;;;-3.11;100.00
16821;BME280;8527;49.740;6.604;2022-12-18T23:22:56;100538.03;;;-3.04;100.00
16821;BME280;8527;49.740;6.604;2022-12-18T23:27:54;100533.22;;;-3.14;100.00
16821;BME280;8527;49.740;6.604;2022-12-18T23:32:53;100534.81;;;-3.09;100.00
16821;BME280;8527;49.740;6.604;2022-12-18T23:37:51;100536.22;;;-3.02;100.00
16821;BME280;8527;49.740;6.604;2022-12-18T23:42:52;100533.09;;;-3.11;100.00
16821;BME280;8527;49.740;6.604;2022-12-18T23:47:50;100526.63;;;-3.00;100.00
16821;BME280;8527;49.740;6.604;2022-12-18T23:52:49;100520.47;;;-2.98;100.00
16821;BME280;8527;49.740;6.604;2022-12-18T23:57:47;100519.34;;;-2.90;100.00
